Time;durP1;ratioP1;P1;durP2;ratioP2;P2;SDS_P1;SDS_P2;PMS_P1;PMS_P2;Temp;Humidity;BMP_temperature;BMP_pressure;BME280_temperature;BME280_humidity;BME280_pressure;Samples;Min_cycle;Max_cycle;Signal;HPM_P1;HPM_P2
2022/03/28 00:02:24;;;;;;;15.20;7.60;;;;;;;6.50;37.77;101334.85;107721;1288;22014;-79
2022/03/28 00:05:18;;;;;;;;;;;;;;;;;;;;;
2022/03/28 00:08:49;;;;;;;15.10;8.70;;;;;;;6.65;37.39;101329.99;107984;1282;23070;-80
2022/03/28 00:12:32;;;;;;;;;;;;;;;;;;;;;
2022/03/28 00:31:24;;;;;;;;;;;;;;;;;;;;;
2022/03/28 00:35:30;;;;;;;;;;;;;;;;;;;;;
2022/03/28 00:39:19;;;;;;;16.40;9.20;;;;;;;7.56;34.61;101300.17;109654;1264;22435;-79
2022/03/28 00:42:43;;;;;;;13.00;8.60;;;;;;;7.37;35.10;101298.52;109302;1264;22958;-79
2022/03/28 00:46:04;;;;;;;13.20;8.80;;;;;;;7.24;35.39;101299.77;108529;1273;22966;-79
2022/03/28 00:49:28;;;;;;;16.20;9.00;;;;;;;7.17;35.78;101300.32;108444;1273;22110;-78
2022/03/28 00:52:21;;;;;;;14.80;9.10;;;;;;;7.11;35.99;101293.10;109128;1265;23110;-79
2022/03/28 00:55:10;;;;;;;13.80;8.50;;;;;;;7.06;36.04;101285.63;108978;1267;22025;-79
2022/03/28 00:58:54;;;;;;;16.50;9.00;;;;;;;6.98;36.15;101277.67;110223;1257;23030;-77
2022/03/28 01:02:16;;;;;;;14.20;8.70;;;;;;;6.90;36.39;101271.48;109870;1258;22752;-79
2022/03/28 01:05:26;;;;;;;15.40;9.30;;;;;;;6.86;36.56;101268.46;109397;1263;21974;-79
2022/03/28 01:08:48;;;;;;;;;;;;;;;;;;;;;
2022/03/28 01:11:56;;;;;;;13.80;9.00;;;;;;;6.73;36.71;101250.77;109459;1262;21974;-78
2022/03/28 01:15:22;;;;;;;15.10;10.20;;;;;;;6.68;36.86;101241.04;109554;1263;24322;-78
2022/03/28 01:18:40;;;;;;;15.30;9.60;;;;;;;6.63;37.01;101236.67;109642;1263;23782;-78
2022/03/28 01:22:39;;;;;;;;;;;;;;;;;;;;;
2022/03/28 01:26:01;;;;;;;15.30;10.00;;;;;;;6.54;37.35;101221.81;110096;1256;21985;-79
2022/03/28 01:29:21;;;;;;;;;;;;;;;;;;;;;
2022/03/28 01:33:17;;;;;;;16.50;9.20;;;;;;;6.44;37.53;101213.63;109672;1262;21973;-79
2022/03/28 01:36:28;;;;;;;15.10;8.60;;;;;;;6.38;37.72;101205.35;108831;1270;23008;-77
2022/03/28 01:39:55;;;;;;;;;;;;;;;;;;;;;
2022/03/28 01:42:52;;;;;;;;;;;;;;;;;;;;;
2022/03/28 01:46:09;;;;;;;16.30;10.30;;;;;;;6.25;38.01;101189.94;108382;1277;24510;-79
2022/03/28 01:49:16;;;;;;;15.50;9.70;;;;;;;6.21;38.30;101185.20;108187;1279;22007;-78
2022/03/28 01:53:22;;;;;;;18.00;10.70;;;;;;;6.14;38.54;101177.52;108163;1279;24007;-78
2022/03/28 01:56:32;;;;;;;19.00;11.10;;;;;;;6.09;38.70;101173.69;107681;1285;23080;-78
2022/03/28 01:59:17;;;;;;;15.60;11.20;;;;;;;6.07;38.81;101172.29;107669;1285;23096;-78
2022/03/28 02:01:47;;;;;;;18.10;11.30;;;;;;;6.07;38.96;101170.69;108047;1279;22224;-78
2022/03/28 02:04:52;;;;;;;19.50;12.30;;;;;;;6.06;39.00;101171.83;108162;1279;22770;-77
2022/03/28 02:07:25;;;;;;;21.60;13.30;;;;;;;6.03;38.96;101167.98;108115;1280;22047;-78
2022/03/28 02:10:14;;;;;;;18.90;12.40;;;;;;;6.02;39.18;101170.23;108154;1276;21988;-78
2022/03/28 02:12:57;;;;;;;18.50;14.50;;;;;;;5.96;39.23;101169.41;108429;1276;21991;-78
2022/03/28 02:15:53;;;;;;;17.60;11.70;;;;;;;5.88;39.45;101169.45;108616;1268;22015;-78
2022/03/28 02:18:58;;;;;;;;;;;;;;;;;;;;;
2022/03/28 02:22:18;;;;;;;;;;;;;;;;;;;;;
2022/03/28 02:25:29;;;;;;;16.70;11.90;;;;;;;5.59;40.51;101170.84;108847;1262;23041;-78
2022/03/28 02:28:05;;;;;;;19.50;12.90;;;;;;;5.58;40.56;101168.78;109592;1260;24303;-78
2022/03/28 02:30:40;;;;;;;20.60;14.10;;;;;;;5.58;40.50;101172.14;109260;1262;23644;-79
2022/03/28 02:33:31;;;;;;;22.10;14.80;;;;;;;5.55;40.51;101174.64;109102;1259;23704;-79
2022/03/28 02:36:14;;;;;;;20.70;15.00;;;;;;;5.48;40.82;101169.55;109706;1259;21969;-79
2022/03/28 02:38:56;;;;;;;19.70;13.60;;;;;;;5.46;41.02;101169.20;109055;1264;22859;-78
2022/03/28 02:41:41;;;;;;;22.30;13.30;;;;;;;5.43;41.31;101168.55;108774;1270;21979;-79
2022/03/28 02:44:18;;;;;;;21.10;14.60;;;;;;;5.41;41.48;101165.91;108797;1270;21995;-79
2022/03/28 02:46:49;;;;;;;22.30;15.20;;;;;;;5.39;41.57;101161.66;108440;1273;24327;-80
2022/03/28 02:49:20;;;;;;;22.80;14.50;;;;;;;5.37;41.73;101161.45;108627;1273;24399;-79
2022/03/28 02:52:00;;;;;;;23.30;16.20;;;;;;;5.33;41.80;101156.90;108758;1273;23072;-79
2022/03/28 02:55:06;;;;;;;26.50;17.10;;;;;;;5.27;42.09;101151.90;108672;1273;21985;-79
2022/03/28 02:57:39;;;;;;;29.80;17.60;;;;;;;5.23;42.32;101151.32;109448;1262;23041;-79
2022/03/28 03:02:08;;;;;;;;;;;;;;;;;;;;;
2022/03/28 03:05:31;;;;;;;;;;;;;;;;;;;;;
2022/03/28 03:08:21;;;;;;;28.10;18.40;;;;;;;5.08;43.09;101143.88;109417;1261;22963;-79
2022/03/28 03:10:58;;;;;;;25.30;16.90;;;;;;;5.06;43.20;101141.58;109266;1263;23045;-78
2022/03/28 03:14:07;;;;;;;29.20;16.90;;;;;;;5.01;43.33;101141.78;109441;1261;22978;-78
2022/03/28 03:16:59;;;;;;;32.80;18.80;;;;;;;4.96;43.51;101141.11;109376;1262;23055;-78
2022/03/28 03:19:50;;;;;;;24.80;18.40;;;;;;;4.90;43.81;101142.04;109362;1261;21967;-78
2022/03/28 03:22:22;;;;;;;26.50;19.40;;;;;;;4.87;43.95;101137.95;109234;1264;22759;-78
2022/03/28 03:25:14;;;;;;;;;;;;;;;;;;;;;
2022/03/28 03:28:27;;;;;;;;;;;;;;;;;;;;;
2022/03/28 03:32:50;;;;;;;;;;;;;;;;;;;;;
2022/03/28 03:36:21;;;;;;;21.50;15.60;;;;;;;4.73;45.37;101133.88;108766;1270;21989;-79
2022/03/28 03:44:05;;;;;;;;;;;;;;;;;;;;;
2022/03/28 03:48:34;;;;;;;22.20;14.50;;;;;;;4.78;45.94;101130.03;109003;1270;22024;-78
2022/03/28 03:52:11;;;;;;;21.90;13.80;;;;;;;4.81;46.32;101130.69;108656;1274;24112;-77
2022/03/28 03:55:36;;;;;;;;;;;;;;;;;;;;;
2022/03/28 03:58:44;;;;;;;;;;;;;;;;;;;;;
2022/03/28 04:03:09;;;;;;;;;;;;;;;;;;;;;
2022/03/28 04:06:11;;;;;;;;;;;;;;;;;;;;;
2022/03/28 04:09:34;;;;;;;;;;;;;;;;;;;;;
2022/03/28 04:13:30;;;;;;;;;;;;;;;;;;;;;
2022/03/28 04:24:41;;;;;;;23.60;15.90;;;;;;;5.13;47.45;101119.60;108005;1283;22222;-79
2022/03/28 04:31:13;;;;;;;;;;;;;;;;;;;;;
2022/03/28 04:35:24;;;;;;;;;;;;;;;;;;;;;
2022/03/28 04:38:41;;;;;;;28.10;18.40;;;;;;;5.14;47.89;101100.47;107261;1292;22013;-78
2022/03/28 04:46:36;;;;;;;;;;;;;;;;;;;;;
2022/03/28 04:50:26;;;;;;;;;;;;;;;;;;;;;
2022/03/28 04:54:33;;;;;;;;;;;;;;;;;;;;;
2022/03/28 04:58:47;;;;;;;;;;;;;;;;;;;;;
2022/03/28 05:02:55;;;;;;;;;;;;;;;;;;;;;
2022/03/28 05:06:25;;;;;;;27.10;18.10;;;;;;;5.37;49.56;101082.81;109149;1270;22140;-80
2022/03/28 05:09:23;;;;;;;34.90;20.50;;;;;;;5.50;49.70;101081.02;108787;1273;23082;-80
2022/03/28 05:12:47;;;;;;;;;;;;;;;;;;;;;
2022/03/28 05:16:08;;;;;;;33.10;20.90;;;;;;;5.82;49.90;101075.40;108301;1281;23005;-81
2022/03/28 05:18:51;;;;;;;30.20;19.90;;;;;;;5.94;49.74;101072.20;108276;1282;22014;-81
2022/03/28 05:21:50;;;;;;;36.20;20.90;;;;;;;6.02;49.52;101067.70;108278;1282;22005;-80
2022/03/28 05:24:36;;;;;;;32.60;21.20;;;;;;;6.07;49.33;101064.88;108802;1270;22378;-81
2022/03/28 05:27:26;;;;;;;26.80;19.80;;;;;;;6.12;49.28;101066.79;109113;1267;22500;-80
2022/03/28 05:30:30;;;;;;;35.80;22.40;;;;;;;6.15;49.25;101067.09;108691;1273;23631;-80
2022/03/28 05:33:18;;;;;;;31.20;22.70;;;;;;;6.21;49.43;101066.61;108781;1270;22052;-81
2022/03/28 05:37:00;;;;;;;;;;;;;;;;;;;;;
2022/03/28 05:40:14;;;;;;;39.30;27.00;;;;;;;6.36;49.87;101057.91;108886;1273;22428;-81
2022/03/28 05:43:15;;;;;;;29.60;20.70;;;;;;;6.44;49.90;101058.80;108663;1273;22056;-81
2022/03/28 05:46:18;;;;;;;24.00;19.40;;;;;;;6.54;49.85;101050.98;108587;1274;22024;-81
2022/03/28 05:49:26;;;;;;;;;;;;;;;6.62;49.85;101045.11;108649;1270;22013;-80
2022/03/28 05:52:01;;;;;;;25.10;17.10;;;;;;;6.62;50.11;101040.00;109039;1270;22014;-80
2022/03/28 05:54:52;;;;;;;25.90;18.20;;;;;;;6.69;50.07;101037.33;109362;1267;22070;-81
2022/03/28 05:58:24;;;;;;;27.00;18.10;;;;;;;6.81;50.03;101037.41;109415;1263;23610;-80
2022/03/28 06:01:23;;;;;;;28.10;17.80;;;;;;;6.90;50.12;101034.73;109305;1264;22365;-81
2022/03/28 06:04:53;;;;;;;34.20;20.70;;;;;;;7.02;50.16;101035.09;109487;1265;23678;-81
2022/03/28 06:07:40;;;;;;;25.80;19.00;;;;;;;7.16;50.09;101031.30;109504;1267;24303;-76
2022/03/28 06:10:17;;;;;;;28.30;18.50;;;;;;;7.29;50.05;101036.58;109229;1265;23056;-78
2022/03/28 06:13:29;;;;;;;28.80;20.30;;;;;;;7.45;50.13;101036.36;109380;1260;23015;-81
2022/03/28 06:17:19;;;;;;;29.90;22.00;;;;;;;7.66;49.86;101036.54;109955;1262;21971;-81
2022/03/28 06:20:21;;;;;;;28.60;20.90;;;;;;;7.91;50.13;101036.48;109402;1263;23676;-80
2022/03/28 06:23:19;;;;;;;;;;;;;;;;;;;;;
2022/03/28 06:26:37;;;;;;;27.80;20.40;;;;;;;8.35;49.46;101030.48;109424;1264;23080;-80
2022/03/28 06:29:28;;;;;;;29.50;20.00;;;;;;;8.77;49.73;101031.36;108856;1271;21986;-80
2022/03/28 06:32:27;;;;;;;25.30;18.90;;;;;;;9.20;50.19;101027.48;108807;1270;22058;-79
2022/03/28 06:35:57;;;;;;;;;;;;;;;;;;;;;
2022/03/28 06:38:33;;;;;;;25.20;19.80;;;;;;;10.34;48.63;101023.45;109478;1264;21973;-79
2022/03/28 06:41:21;;;;;;;23.70;17.90;;;;;;;10.88;48.05;101023.91;109355;1265;22079;-79
2022/03/28 06:44:21;;;;;;;24.60;18.30;;;;;;;11.54;47.39;101026.39;109775;1265;21984;-78
2022/03/28 06:47:41;;;;;;;21.90;14.70;;;;;;;12.25;46.83;101023.86;109696;1264;21984;-79
2022/03/28 06:55:15;;;;;;;24.90;15.70;;;;;;;13.71;43.94;101022.16;108706;1273;22036;-79
2022/03/28 06:58:31;;;;;;;21.50;14.50;;;;;;;14.31;42.37;101020.09;108698;1273;22001;-79
2022/03/28 07:01:16;;;;;;;21.40;16.50;;;;;;;14.78;41.21;101018.05;108538;1276;22035;-80
2022/03/28 07:04:24;;;;;;;;;;;;;;;;;;;;;
2022/03/28 07:08:18;;;;;;;;;;;;;;;;;;;;;
2022/03/28 07:11:22;;;;;;;19.10;14.50;;;;;;;15.73;38.40;101006.92;108774;1276;22021;-79
2022/03/28 07:14:26;;;;;;;;;;;;;;;;;;;;;
2022/03/28 07:17:57;;;;;;;;;;;;;;;;;;;;;
2022/03/28 07:20:53;;;;;;;21.70;14.80;;;;;;;16.34;38.17;100998.14;108833;1276;22082;-82
2022/03/28 07:24:35;;;;;;;;;;;;;;;;;;;;;
2022/03/28 07:27:44;;;;;;;17.10;13.80;;;;;;;16.67;36.71;100985.16;107703;1288;22344;-80
2022/03/28 07:30:48;;;;;;;22.20;19.10;;;;;;;16.89;36.79;100984.66;107969;1288;22018;-80
2022/03/28 07:33:53;;;;;;;17.90;14.10;;;;;;;17.24;36.54;100980.17;107755;1287;22017;-81
2022/03/28 07:37:28;;;;;;;;;;;;;;;;;;;;;
2022/03/28 07:40:07;;;;;;;18.20;15.00;;;;;;;17.90;35.39;100970.05;108115;1285;24410;-81
2022/03/28 07:43:24;;;;;;;16.80;13.00;;;;;;;18.22;34.99;100968.48;108652;1273;22062;-82
2022/03/28 07:46:44;;;;;;;;;;;;;;;;;;;;;
2022/03/28 07:50:02;;;;;;;15.30;11.80;;;;;;;18.46;33.60;100953.95;110350;1260;21989;-80
2022/03/28 07:53:17;;;;;;;18.10;13.50;;;;;;;18.60;33.92;100955.19;109943;1261;22521;-81
2022/03/28 07:57:05;;;;;;;15.50;12.00;;;;;;;18.93;33.47;100956.39;109810;1261;23086;-80
2022/03/28 08:00:03;;;;;;;18.60;11.00;;;;;;;19.02;32.77;100952.25;109641;1261;21995;-81
2022/03/28 08:03:48;;;;;;;;;;;;;;;19.14;32.89;100952.02;110058;1260;23590;-80
2022/03/28 08:07:10;;;;;;;13.90;11.80;;;;;;;19.16;32.71;100945.85;109418;1267;22074;-80
2022/03/28 08:10:15;;;;;;;13.80;11.00;;;;;;;19.37;32.96;100942.98;109401;1258;23674;-79
2022/03/28 08:13:14;;;;;;;21.40;16.60;;;;;;;19.55;32.09;100936.73;110367;1257;22524;-81
2022/03/28 08:16:21;;;;;;;;;;;;;;;;;;;;;
2022/03/28 08:19:16;;;;;;;12.10;10.00;;;;;;;19.65;31.80;100937.25;109932;1264;21982;-79
2022/03/28 08:21:47;;;;;;;12.90;10.30;;;;;;;19.80;31.68;100930.46;109638;1264;23769;-80
2022/03/28 08:24:40;;;;;;;;;;;;;;;;;;;;;
2022/03/28 08:27:38;;;;;;;26.90;11.40;;;;;;;19.86;30.83;100924.61;110386;1259;21964;-82
2022/03/28 08:30:13;;;;;;;;;;;;;;;19.85;31.06;100921.70;110144;1260;24896;-81
2022/03/28 08:32:57;;;;;;;;;;;;;;;;;;;;;
2022/03/28 08:36:10;;;;;;;17.60;11.80;;;;;;;19.94;31.06;100912.61;110172;1260;21965;-80
2022/03/28 08:39:11;;;;;;;40.30;13.10;;;;;;;20.18;30.93;100907.36;109984;1262;22132;-80
2022/03/28 08:42:18;;;;;;;15.40;9.50;;;;;;;20.36;30.46;100907.35;110043;1257;22112;-81
2022/03/28 08:45:21;;;;;;;15.60;9.90;;;;;;;20.39;30.17;100899.52;109969;1258;21961;-79
2022/03/28 08:48:34;;;;;;;16.90;10.10;;;;;;;20.66;30.29;100897.45;109938;1258;21963;-80
2022/03/28 08:52:00;;;;;;;19.20;10.10;;;;;;;20.88;29.78;100887.64;110049;1257;22027;-79
2022/03/28 08:55:21;;;;;;;15.70;9.30;;;;;;;21.08;29.49;100883.39;110341;1257;25001;-79
2022/03/28 08:58:24;;;;;;;18.90;9.90;;;;;;;21.43;29.65;100881.25;110847;1254;22729;-81
2022/03/28 09:01:26;;;;;;;16.80;9.10;;;;;;;21.88;28.71;100876.91;110919;1251;21954;-79
2022/03/28 09:04:41;;;;;;;;;;;;;;;;;;;;;
2022/03/28 09:07:58;;;;;;;22.70;10.80;;;;;;;22.29;27.54;100863.81;110376;1260;21980;-79
2022/03/28 09:15:36;;;;;;;;;;;;;;;;;;;;;
2022/03/28 09:18:42;;;;;;;18.60;9.40;;;;;;;22.56;26.65;100858.45;108392;1280;22014;-81
2022/03/28 09:22:30;;;;;;;15.70;8.70;;;;;;;22.71;26.34;100854.58;108355;1281;22041;-80
2022/03/28 09:25:57;;;;;;;18.80;9.70;;;;;;;23.00;26.07;100850.06;108452;1276;23622;-80
2022/03/28 09:28:58;;;;;;;15.40;9.00;;;;;;;23.27;25.72;100842.62;108366;1282;22021;-79
2022/03/28 09:32:30;;;;;;;13.10;8.10;;;;;;;23.26;25.35;100837.71;108926;1276;21976;-80
2022/03/28 09:35:44;;;;;;;11.70;7.80;;;;;;;23.25;25.37;100832.83;108800;1276;22010;-80
2022/03/28 09:38:47;;;;;;;21.80;9.50;;;;;;;23.10;25.40;100826.39;108701;1276;21988;-79
2022/03/28 09:42:34;;;;;;;13.60;10.50;;;;;;;23.09;25.69;100821.94;108503;1279;22040;-81
2022/03/28 09:45:50;;;;;;;;;;;;;;;;;;;;;
2022/03/28 09:49:45;;;;;;;17.40;7.90;;;;;;;23.62;25.06;100809.22;108635;1279;22095;-78
2022/03/28 09:52:54;;;;;;;11.10;7.70;;;;;;;23.91;25.07;100801.02;108468;1279;22976;-80
2022/03/28 09:56:12;;;;;;;11.30;8.20;;;;;;;24.48;24.91;100793.30;108601;1276;22702;-83
2022/03/28 10:00:20;;;;;;;;;;;;;;;;;;;;;
2022/03/28 10:04:34;;;;;;;;;;;;;;;;;;;;;
2022/03/28 10:08:03;;;;;;;14.40;7.80;;;;;;;26.07;23.08;100775.95;109008;1270;23715;-81
2022/03/28 10:11:51;;;;;;;;;;;;;;;;;;;;;
2022/03/28 10:15:04;;;;;;;;;;;;;;;;;;;;;
2022/03/28 10:18:46;;;;;;;21.40;8.30;;;;;;;28.13;21.22;100749.70;108988;1273;21989;-81
2022/03/28 10:22:53;;;;;;;11.10;6.60;;;;;;;28.71;20.31;100746.56;108626;1276;22779;-81
2022/03/28 10:26:19;;;;;;;;;;;;;;;;;;;;;
2022/03/28 10:29:40;;;;;;;8.80;5.90;;;;;;;29.68;19.05;100731.59;108358;1279;22009;-81
2022/03/28 10:33:46;;;;;;;;;;;;;;;;;;;;;
2022/03/28 10:36:52;;;;;;;11.10;5.50;;;;;;;29.96;18.11;100730.29;108351;1283;23065;-81
2022/03/28 10:39:53;;;;;;;15.30;6.70;;;;;;;30.06;18.06;100726.20;108206;1283;22006;-80
2022/03/28 10:43:39;;;;;;;;;;;;;;;;;;;;;
2022/03/28 10:46:24;;;;;;;9.50;4.70;;;;;;;30.67;17.33;100725.16;108564;1280;23077;-81
2022/03/28 10:50:07;;;;;;;;;;;;;;;;;;;;;
2022/03/28 10:53:54;;;;;;;;;;;;;;;;;;;;;
2022/03/28 10:56:56;;;;;;;25.40;9.50;;;;;;;29.95;17.52;100696.09;108021;1283;23803;-82
2022/03/28 10:59:35;;;;;;;11.70;8.40;;;;;;;29.56;17.55;100688.45;108281;1283;23830;-81
2022/03/28 11:02:29;;;;;;;13.10;7.40;;;;;;;28.48;17.75;100684.77;108356;1283;23536;-82
2022/03/28 11:05:49;;;;;;;12.20;6.70;;;;;;;26.98;18.72;100681.52;108534;1279;22012;-81
2022/03/28 11:08:45;;;;;;;14.00;8.20;;;;;;;25.55;19.90;100672.25;108577;1280;22010;-81
2022/03/28 11:12:14;;;;;;;;;;;;;;;;;;;;;
2022/03/28 11:16:40;;;;;;;16.60;9.00;;;;;;;22.90;22.35;100663.19;109477;1267;23145;-82
2022/03/28 11:21:08;;;;;;;;;;;;;;;;;;;;;
2022/03/28 11:25:24;;;;;;;18.90;9.00;;;;;;;21.01;25.44;100647.54;109997;1263;23754;-81
2022/03/28 11:29:04;;;;;;;19.70;9.00;;;;;;;20.54;25.90;100642.50;108703;1279;23108;-82
2022/03/28 11:35:56;;;;;;;34.30;9.50;;;;;;;19.78;27.12;100626.13;108235;1286;22004;-81
2022/03/28 11:39:14;;;;;;;;;;;;;;;;;;;;;
2022/03/28 11:42:56;;;;;;;;;;;;;;;;;;;;;
2022/03/28 11:46:14;;;;;;;;;;;;;;;;;;;;;
2022/03/28 11:49:57;;;;;;;27.30;11.80;;;;;;;19.27;29.29;100604.36;106680;1300;22031;-81
2022/03/28 12:03:53;;;;;;;20.10;10.90;;;;;;;20.06;28.92;100586.06;107336;1291;548390;-81
2022/03/28 12:07:31;;;;;;;15.30;10.20;;;;;;;20.06;29.49;100566.02;106939;1264;3126208;-82
2022/03/28 12:10:58;;;;;;;14.90;10.90;;;;;;;19.59;29.76;100553.75;109717;1264;23002;-82
2022/03/28 12:14:46;;;;;;;20.80;11.50;;;;;;;19.27;30.37;100545.60;109558;1264;23859;-81
2022/03/28 12:18:53;;;;;;;;;;;;;;;;;;;;;
2022/03/28 12:22:41;;;;;;;;;;;;;;;;;;;;;
2022/03/28 12:26:34;;;;;;;;;;;;;;;;;;;;;
2022/03/28 12:29:54;;;;;;;11.90;7.00;;;;;;;18.70;31.22;100514.99;108763;1279;22071;-82
2022/03/28 12:33:05;;;;;;;10.80;9.60;;;;;;;18.69;31.31;100513.58;108557;1279;21990;-81
2022/03/28 12:36:40;;;;;;;15.90;10.30;;;;;;;18.67;31.59;100501.50;108263;1283;22108;-80
2022/03/28 12:43:05;;;;;;;;;;;;;;;;;;;;;
2022/03/28 12:46:00;;;;;;;;;;;;;;;;;;;;;
2022/03/28 12:49:43;;;;;;;14.70;8.60;;;;;;;18.56;31.83;100482.15;108535;1280;23738;-81
2022/03/28 12:52:56;;;;;;;14.90;8.90;;;;;;;18.54;32.13;100481.11;108600;1276;23096;-80
2022/03/28 12:56:51;;;;;;;12.60;8.80;;;;;;;18.57;32.38;100476.83;109507;1266;22095;-81
2022/03/28 12:59:58;;;;;;;16.00;8.70;;;;;;;18.62;32.37;100470.84;109174;1270;23550;-80
2022/03/28 13:03:33;;;;;;;;;;;;;;;;;;;;;
2022/03/28 13:07:06;;;;;;;15.00;7.90;;;;;;;18.60;32.17;100462.10;109340;1265;21976;-80
2022/03/28 13:10:45;;;;;;;;;;;;;;;;;;;;;
2022/03/28 13:14:39;;;;;;;;;;;;;;;;;;;;;
2022/03/28 13:19:00;;;;;;;;;;;;;;;;;;;;;
2022/03/28 13:22:27;;;;;;;;;;;;;;;;;;;;;
2022/03/28 13:25:33;;;;;;;43.90;11.70;;;;;;;18.53;32.67;100417.41;108542;1282;22023;-80
2022/03/28 13:28:37;;;;;;;11.60;9.30;;;;;;;18.53;32.85;100413.41;108630;1275;22793;-81
2022/03/28 13:31:41;;;;;;;;;;;;;;;;;;;;;
2022/03/28 13:35:36;;;;;;;16.20;7.80;;;;;;;18.57;32.88;100399.09;108967;1267;21990;-80
2022/03/28 13:39:22;;;;;;;;;;;;;;;;;;;;;
2022/03/28 13:43:05;;;;;;;;;;;;;;;;;;;;;
2022/03/28 13:47:12;;;;;;;;;;;;;;;;;;;;;
2022/03/28 13:50:47;;;;;;;11.70;7.40;;;;;;;18.49;32.76;100371.06;109718;1266;22416;-83
2022/03/28 13:54:28;;;;;;;7.20;6.40;;;;;;;18.47;32.73;100368.48;110153;1264;23044;-82
2022/03/28 13:58:05;;;;;;;;;;;;;;;;;;;;;
2022/03/28 14:01:11;;;;;;;10.10;6.20;;;;;;;18.51;32.99;100354.66;109504;1267;21991;-82
2022/03/28 14:04:35;;;;;;;10.70;6.60;;;;;;;18.56;33.15;100349.67;109495;1268;21982;-81
2022/03/28 14:07:42;;;;;;;8.60;6.40;;;;;;;18.58;33.00;100348.02;109432;1262;23448;-81
2022/03/28 14:11:25;;;;;;;;;;;;;;;;;;;;;
2022/03/28 14:15:05;;;;;;;;;;;;;;;;;;;;;
2022/03/28 14:18:57;;;;;;;23.50;6.90;;;;;;;18.57;32.89;100328.84;109327;1270;21985;-82
2022/03/28 14:22:43;;;;;;;;;;;;;;;;;;;;;
2022/03/28 14:26:19;;;;;;;10.40;7.10;;;;;;;18.53;32.94;100316.83;109399;1269;22030;-82
2022/03/28 14:29:39;;;;;;;14.10;9.90;;;;;;;18.53;33.06;100310.69;108780;1279;22000;-82
2022/03/28 14:32:28;;;;;;;11.10;7.00;;;;;;;18.55;33.16;100308.98;108903;1270;22049;-81
2022/03/28 14:35:37;;;;;;;12.60;7.50;;;;;;;18.58;33.26;100303.61;109379;1270;23404;-82
2022/03/28 14:39:20;;;;;;;13.30;7.90;;;;;;;18.57;33.30;100298.51;109414;1267;22305;-81
2022/03/28 14:42:35;;;;;;;12.60;9.30;;;;;;;18.56;33.26;100290.81;108930;1277;21979;-81
2022/03/28 14:49:30;;;;;;;14.20;7.40;;;;;;;18.62;33.51;100282.37;108798;1279;22143;-81
2022/03/28 14:52:31;;;;;;;18.40;7.20;;;;;;;18.64;33.38;100273.24;108726;1279;23038;-80
2022/03/28 14:55:07;;;;;;;15.00;7.20;;;;;;;18.66;33.16;100276.02;108777;1279;21991;-80
2022/03/28 14:57:54;;;;;;;12.50;7.50;;;;;;;18.64;33.18;100273.98;108673;1279;22069;-80
2022/03/28 15:00:32;;;;;;;13.20;6.50;;;;;;;18.64;33.42;100273.61;108996;1270;21959;-81
2022/03/28 15:03:44;;;;;;;;;;;;;;;;;;;;;
2022/03/28 15:07:29;;;;;;;9.60;6.10;;;;;;;18.64;33.30;100267.69;108741;1276;22040;-82
2022/03/28 15:10:34;;;;;;;5.70;5.10;;;;;;;18.63;33.44;100263.88;108621;1276;23059;-81
2022/03/28 15:14:00;;;;;;;7.50;5.60;;;;;;;18.59;33.45;100259.93;108975;1270;21992;-82
2022/03/28 15:17:11;;;;;;;;;;;;;;;;;;;;;
2022/03/28 15:20:31;;;;;;;11.10;4.90;;;;;;;18.53;33.65;100251.55;109710;1262;22114;-81
2022/03/28 15:23:23;;;;;;;8.50;4.80;;;;;;;18.53;33.66;100249.16;109691;1264;22479;-81
2022/03/28 15:26:20;;;;;;;6.60;5.50;;;;;;;18.54;33.77;100247.30;110226;1259;22051;-81
2022/03/28 15:29:28;;;;;;;8.80;5.40;;;;;;;18.55;33.86;100249.85;110291;1257;21972;-80
2022/03/28 15:32:57;;;;;;;9.10;5.70;;;;;;;18.49;33.92;100245.98;110153;1260;23696;-81
2022/03/28 15:35:57;;;;;;;12.40;5.00;;;;;;;18.45;33.89;100240.93;110120;1260;22028;-80
2022/03/28 15:38:37;;;;;;;6.80;4.40;;;;;;;18.43;33.98;100235.48;109889;1261;21941;-81
2022/03/28 15:42:21;;;;;;;6.90;4.30;;;;;;;18.38;34.08;100229.73;110015;1261;22981;-81
2022/03/28 15:46:35;;;;;;;;;;;;;;;;;;;;;
2022/03/28 15:50:51;;;;;;;;;;;;;;;;;;;;;
2022/03/28 15:54:22;;;;;;;;;;;;;;;;;;;;;
2022/03/28 15:57:44;;;;;;;9.90;5.20;;;;;;;18.22;34.66;100211.76;109333;1267;22004;-82
2022/03/28 16:04:23;;;;;;;;;;;;;;;;;;;;;
2022/03/28 16:07:46;;;;;;;;;;;;;;;;;;;;;
2022/03/28 16:11:03;;;;;;;;;;;;;;;;;;;;;
2022/03/28 16:14:59;;;;;;;;;;;;;;;;;;;;;
2022/03/28 16:17:54;;;;;;;9.90;5.80;;;;;;;18.05;34.70;100191.98;108909;1273;21993;-81
2022/03/28 16:21:07;;;;;;;9.70;5.30;;;;;;;17.99;34.84;100183.56;109009;1273;23106;-81
2022/03/28 16:24:21;;;;;;;7.20;5.20;;;;;;;17.94;34.90;100180.61;109010;1273;22972;-80
2022/03/28 16:27:36;;;;;;;;;;;;;;;;;;;;;
2022/03/28 16:31:33;;;;;;;;;;;;;;;;;;;;;
2022/03/28 16:34:35;;;;;;;;;;;;;;;;;;;;;
2022/03/28 16:37:27;;;;;;;12.60;7.40;;;;;;;17.61;35.28;100164.96;110127;1262;23750;-80
2022/03/28 16:40:44;;;;;;;;;;;;;;;;;;;;;
2022/03/28 16:44:10;;;;;;;11.20;6.40;;;;;;;17.49;35.52;100158.86;109368;1268;22441;-81
2022/03/28 16:47:50;;;;;;;;;;;;;;;;;;;;;
2022/03/28 16:50:59;;;;;;;19.70;10.00;;;;;;;17.33;35.87;100149.62;109442;1267;23628;-80
2022/03/28 16:54:01;;;;;;;14.60;9.00;;;;;;;17.26;35.97;100148.30;109617;1265;23590;-82
2022/03/28 16:57:43;;;;;;;;;;;;;;;;;;;;;
2022/03/28 17:00:53;;;;;;;13.20;9.80;;;;;;;17.09;36.31;100140.74;109469;1265;22911;-81
2022/03/28 17:03:57;;;;;;;10.80;9.10;;;;;;;17.02;36.45;100135.98;109685;1264;22748;-81
2022/03/28 17:10:30;;;;;;;;;;;;;;;;;;;;;
2022/03/28 17:14:03;;;;;;;;;;;;;;;;;;;;;
2022/03/28 17:17:46;;;;;;;13.30;9.60;;;;;;;16.67;36.99;100127.66;109305;1271;21982;-80
2022/03/28 17:20:47;;;;;;;;;;;;;;;16.57;37.22;100125.25;109450;1267;21980;-80
2022/03/28 17:24:01;;;;;;;12.40;10.30;;;;;;;16.42;37.42;100119.70;109396;1268;23749;-82
2022/03/28 17:27:04;;;;;;;;;;;;;;;;;;;;;
2022/03/28 17:30:46;;;;;;;18.40;11.00;;;;;;;16.22;37.82;100117.80;109906;1264;21975;-82
2022/03/28 17:33:35;;;;;;;12.90;11.40;;;;;;;16.16;37.83;100116.27;109612;1264;23613;-81
2022/03/28 17:36:24;;;;;;;13.60;10.50;;;;;;;16.13;37.89;100116.10;109382;1267;21983;-81
2022/03/28 17:39:21;;;;;;;;;;;;;;;;;;;;;
2022/03/28 17:42:38;;;;;;;20.90;17.00;;;;;;;16.03;38.18;100117.41;109700;1263;22247;-81
2022/03/28 17:45:24;;;;;;;19.90;15.20;;;;;;;15.97;38.23;100120.83;109612;1264;22116;-82
2022/03/28 17:48:28;;;;;;;17.20;14.30;;;;;;;15.93;38.36;100121.00;109644;1264;21975;-81
2022/03/28 17:52:21;;;;;;;23.40;15.30;;;;;;;15.85;38.50;100117.33;109824;1261;22048;-82
2022/03/28 17:56:07;;;;;;;;;;;;;;;;;;;;;
2022/03/28 17:59:48;;;;;;;;;;;;;;;;;;;;;
2022/03/28 18:03:05;;;;;;;28.00;22.40;;;;;;;15.65;39.03;100115.16;108894;1273;21985;-83
2022/03/28 18:06:34;;;;;;;27.40;24.50;;;;;;;15.62;39.01;100109.34;108857;1274;22647;-77
2022/03/28 18:09:11;;;;;;;31.10;23.10;;;;;;;15.59;39.21;100112.95;108437;1288;22008;-83
2022/03/28 18:12:22;;;;;;;27.30;20.70;;;;;;;15.56;39.25;100109.64;108063;1286;22015;-83
2022/03/28 18:15:23;;;;;;;;;;;;;;;;;;;;;
2022/03/28 18:18:16;;;;;;;;;;;;;;;;;;;;;
2022/03/28 18:21:29;;;;;;;28.30;20.80;;;;;;;15.41;39.49;100117.30;109182;1276;22043;-83
2022/03/28 18:24:27;;;;;;;29.40;21.20;;;;;;;15.37;39.61;100116.60;109121;1276;22024;-83
2022/03/28 18:27:32;;;;;;;28.10;21.90;;;;;;;15.34;39.62;100117.21;109073;1276;21958;-85
2022/03/28 18:30:27;;;;;;;27.50;21.40;;;;;;;15.29;39.73;100113.13;108726;1282;22613;-83
2022/03/28 18:33:17;;;;;;;23.30;18.10;;;;;;;15.24;39.79;100111.02;108452;1279;23639;-85
2022/03/28 18:36:54;;;;;;;;;;;;;;;;;;;;;
2022/03/28 18:40:28;;;;;;;25.10;20.20;;;;;;;15.08;40.16;100106.96;109417;1270;22057;-80
2022/03/28 18:43:42;;;;;;;22.50;19.30;;;;;;;15.00;40.25;100104.46;109154;1273;21995;-83
2022/03/28 18:46:39;;;;;;;;;;;;;;;;;;;;;
2022/03/28 18:49:20;;;;;;;26.50;18.90;;;;;;;14.91;40.48;100098.30;109383;1273;21982;-84
2022/03/28 18:52:35;;;;;;;26.90;19.40;;;;;;;14.87;40.50;100098.84;109405;1270;22009;-84
2022/03/28 18:55:39;;;;;;;26.90;19.70;;;;;;;14.81;40.67;100096.20;109211;1275;21997;-84
2022/03/28 18:58:24;;;;;;;22.50;18.40;;;;;;;14.77;40.69;100097.30;109097;1269;21973;-86
2022/03/28 19:01:51;;;;;;;23.90;18.00;;;;;;;14.71;40.82;100097.11;109563;1264;22267;-82
2022/03/28 19:04:58;;;;;;;28.40;19.10;;;;;;;14.64;40.83;100096.61;109610;1264;21993;-83
2022/03/28 19:07:40;;;;;;;22.50;18.40;;;;;;;14.60;40.93;100096.11;109525;1270;21983;-84
2022/03/28 19:10:59;;;;;;;;;;;;;;;;;;;;;